createdAt,value
2022-10-23T00:01:43.058Z,2.83
2022-10-23T00:04:16.580Z,2.63
2022-10-23T00:06:45.345Z,2.95
2022-10-23T00:09:16.089Z,2.75
2022-10-23T00:11:47.627Z,3.50
2022-10-23T00:14:17.189Z,2.35
2022-10-23T00:16:45.028Z,2.65
2022-10-23T00:19:12.653Z,2.38
2022-10-23T00:21:40.370Z,2.85
2022-10-23T00:26:40.678Z,3.10
2022-10-23T00:29:09.297Z,2.70
2022-10-23T00:31:37.329Z,2.55
2022-10-23T00:34:08.090Z,2.05
2022-10-23T00:36:36.014Z,2.40
2022-10-23T00:39:04.403Z,2.45
2022-10-23T00:41:32.703Z,2.60
2022-10-23T00:44:09.535Z,2.88
2022-10-23T00:46:39.203Z,2.30
2022-10-23T00:49:07.941Z,2.25
2022-10-23T00:51:58.267Z,2.50
2022-10-23T00:54:29.707Z,2.47
2022-10-23T00:57:00.194Z,2.33
2022-10-23T00:59:28.622Z,2.50
2022-10-23T01:01:56.309Z,2.42
2022-10-23T01:04:25.847Z,2.28
2022-10-23T01:07:00.701Z,2.25
2022-10-23T01:09:59.932Z,2.88
2022-10-23T01:13:02.497Z,2.38
2022-10-23T01:15:33.230Z,2.10
2022-10-23T01:18:31.891Z,2.47
2022-10-23T01:21:03.184Z,3.22
2022-10-23T01:23:33.673Z,2.80
2022-10-23T01:26:40.002Z,2.60
2022-10-23T01:29:33.766Z,2.25
2022-10-23T01:32:07.706Z,3.08
2022-10-23T01:35:09.554Z,2.83
2022-10-23T01:37:46.175Z,2.80
2022-10-23T01:40:34.674Z,2.28
2022-10-23T01:43:07.105Z,3.17
2022-10-23T01:45:38.036Z,2.78
2022-10-23T01:48:12.192Z,2.63
2022-10-23T01:50:42.700Z,2.58
2022-10-23T01:53:10.446Z,2.72
2022-10-23T01:58:12.037Z,2.88
2022-10-23T02:00:44.254Z,2.60
2022-10-23T02:03:14.901Z,2.50
2022-10-23T02:05:44.643Z,2.75
2022-10-23T02:08:12.736Z,2.65
2022-10-23T02:10:59.698Z,2.97
2022-10-23T02:13:36.997Z,3.10
2022-10-23T02:16:27.586Z,2.70
2022-10-23T02:19:03.942Z,2.47
2022-10-23T02:21:56.259Z,2.75
2022-10-23T02:24:36.465Z,3.50
2022-10-23T02:27:23.833Z,3.38
2022-10-23T02:30:00.372Z,3.28
2022-10-23T02:32:29.486Z,3.80
2022-10-23T02:34:57.272Z,3.50
2022-10-23T02:37:25.584Z,3.30
2022-10-23T02:39:54.612Z,3.05
2022-10-23T02:42:40.804Z,2.72
2022-10-23T02:45:36.619Z,2.53
2022-10-23T02:48:17.151Z,2.97
2022-10-23T02:50:54.842Z,2.92
2022-10-23T02:53:54.310Z,2.70
2022-10-23T02:56:28.092Z,3.33
2022-10-23T02:59:40.994Z,3.03
2022-10-23T03:02:25.719Z,2.67
2022-10-23T03:04:55.787Z,2.92
2022-10-23T03:07:26.538Z,2.30
2022-10-23T03:10:02.008Z,2.63
2022-10-23T03:12:31.396Z,2.72
2022-10-23T03:15:00.246Z,2.35
2022-10-23T03:17:27.712Z,2.40
2022-10-23T03:19:58.504Z,2.45
2022-10-23T03:22:26.289Z,2.88
2022-10-23T03:24:53.759Z,2.67
2022-10-23T03:27:21.455Z,2.60
2022-10-23T03:29:49.349Z,2.40
2022-10-23T03:32:18.148Z,2.03
2022-10-23T03:34:45.739Z,2.20
2022-10-23T03:37:13.243Z,2.70
2022-10-23T03:39:40.666Z,2.13
2022-10-23T03:42:08.133Z,2.13
2022-10-23T03:44:35.763Z,2.70
2022-10-23T03:47:04.504Z,2.20
2022-10-23T03:49:31.983Z,2.15
2022-10-23T03:52:05.253Z,2.53
2022-10-23T03:54:33.872Z,2.58
2022-10-23T03:57:01.964Z,2.20
2022-10-23T03:59:29.805Z,2.20
2022-10-23T04:01:59.316Z,2.58
2022-10-23T04:04:26.903Z,2.47
2022-10-23T04:06:54.515Z,2.25
2022-10-23T04:09:22.605Z,2.20
2022-10-23T04:11:50.100Z,3.03
2022-10-23T04:14:17.773Z,2.78
2022-10-23T04:16:45.258Z,2.13
2022-10-23T04:19:12.942Z,2.40
2022-10-23T04:21:41.851Z,2.10
2022-10-23T04:24:09.496Z,2.35
2022-10-23T04:26:38.374Z,2.03
2022-10-23T04:29:05.820Z,2.05
2022-10-23T04:31:33.359Z,1.85
2022-10-23T04:34:00.928Z,1.95
2022-10-23T04:36:32.546Z,1.65
2022-10-23T04:39:07.775Z,1.70
2022-10-23T04:41:38.861Z,1.65
2022-10-23T04:44:07.070Z,1.80
2022-10-23T04:46:38.131Z,1.40
2022-10-23T04:49:06.433Z,1.98
2022-10-23T04:51:49.474Z,1.58
2022-10-23T04:54:40.849Z,1.70
2022-10-23T04:57:23.259Z,1.65
2022-10-23T05:00:13.800Z,1.77
2022-10-23T05:02:45.838Z,1.55
2022-10-23T05:05:15.573Z,1.70
2022-10-23T05:07:55.081Z,1.48
2022-10-23T05:10:32.419Z,1.40
2022-10-23T05:13:09.618Z,1.48
2022-10-23T05:15:37.273Z,1.45
2022-10-23T05:18:15.433Z,1.63
2022-10-23T05:20:45.839Z,1.40
2022-10-23T05:23:16.032Z,1.35
2022-10-23T05:25:52.921Z,1.08
2022-10-23T05:28:20.422Z,1.58
2022-10-23T05:30:48.396Z,1.67
2022-10-23T05:33:17.859Z,1.50
2022-10-23T05:35:45.638Z,1.60
2022-10-23T05:40:44.180Z,1.77
2022-10-23T05:43:17.413Z,1.40
2022-10-23T05:45:50.986Z,1.13
2022-10-23T05:48:35.339Z,1.27
2022-10-23T05:51:32.146Z,1.38
2022-10-23T05:54:26.314Z,1.35
2022-10-23T05:57:12.504Z,1.30
2022-10-23T05:59:45.433Z,1.00
2022-10-23T06:02:22.355Z,1.42
2022-10-23T06:04:54.737Z,1.35
2022-10-23T06:07:40.870Z,1.10
2022-10-23T06:10:11.139Z,1.15
2022-10-23T06:12:43.190Z,1.35
2022-10-23T06:15:15.030Z,1.40
2022-10-23T06:18:02.739Z,1.20
2022-10-23T06:20:36.881Z,1.05
2022-10-23T06:23:10.509Z,1.38
2022-10-23T06:26:04.873Z,1.40
2022-10-23T06:28:40.618Z,1.50
2022-10-23T06:31:12.010Z,1.25
2022-10-23T06:33:40.318Z,1.10
2022-10-23T06:36:10.659Z,1.95
2022-10-23T06:38:40.847Z,1.73
2022-10-23T06:41:14.735Z,1.92
2022-10-23T06:43:44.622Z,2.45
2022-10-23T06:46:18.830Z,2.20
2022-10-23T06:49:16.393Z,2.15
2022-10-23T06:51:48.992Z,2.22
2022-10-23T06:54:21.210Z,1.70
2022-10-23T06:56:51.701Z,2.28
2022-10-23T06:59:23.379Z,1.95
2022-10-23T07:04:25.352Z,1.98
2022-10-23T07:06:57.283Z,1.80
2022-10-23T07:09:30.117Z,2.00
2022-10-23T07:11:57.558Z,1.67
2022-10-23T07:14:36.405Z,1.88
2022-10-23T07:17:04.669Z,1.58
2022-10-23T07:19:32.119Z,1.70
2022-10-23T07:22:05.533Z,1.70
2022-10-23T07:24:37.190Z,1.92
2022-10-23T07:27:12.293Z,2.30
2022-10-23T07:29:39.944Z,1.85
2022-10-23T07:32:07.546Z,2.22
2022-10-23T07:35:01.913Z,2.20
2022-10-23T07:37:32.143Z,1.90
2022-10-23T07:40:02.756Z,2.42
2022-10-23T07:42:32.534Z,1.98
2022-10-23T07:45:00.062Z,3.05
2022-10-23T07:47:29.715Z,1.92
2022-10-23T07:49:57.139Z,1.92
2022-10-23T07:52:25.275Z,2.10
2022-10-23T07:55:13.376Z,2.03
2022-10-23T07:57:47.609Z,2.17
2022-10-23T08:00:45.361Z,1.95
2022-10-23T08:03:24.158Z,2.38
2022-10-23T08:05:56.661Z,2.30
2022-10-23T08:08:25.478Z,2.20
2022-10-23T08:10:56.590Z,2.25
2022-10-23T08:13:29.119Z,2.53
2022-10-23T08:16:02.436Z,2.45
2022-10-23T08:18:53.414Z,2.13
2022-10-23T08:21:37.726Z,2.40
2022-10-23T08:24:06.901Z,1.83
2022-10-23T08:26:34.625Z,2.25
2022-10-23T08:29:05.953Z,1.75
2022-10-23T08:31:36.515Z,2.05
2022-10-23T08:34:13.686Z,1.95
2022-10-23T08:36:42.404Z,3.15
2022-10-23T08:39:16.197Z,2.25
2022-10-23T08:42:24.600Z,2.00
2022-10-23T08:45:02.288Z,3.33
2022-10-23T08:47:38.852Z,3.22
2022-10-23T08:50:34.861Z,2.15
2022-10-23T08:53:14.531Z,2.88
2022-10-23T08:55:52.897Z,3.13
2022-10-23T08:58:48.137Z,2.45
2022-10-23T09:01:20.441Z,2.53
2022-10-23T09:03:47.890Z,3.33
2022-10-23T09:06:25.497Z,2.47
2022-10-23T09:09:10.747Z,2.42
2022-10-23T09:12:00.986Z,2.42
2022-10-23T09:14:30.885Z,2.50
2022-10-23T09:17:27.294Z,2.70
2022-10-23T09:20:25.162Z,2.22
2022-10-23T09:23:07.673Z,2.65
2022-10-23T09:25:39.059Z,2.75
2022-10-23T09:28:06.696Z,2.67
2022-10-23T09:30:37.054Z,2.40
2022-10-23T09:33:25.528Z,2.70
2022-10-23T09:35:57.897Z,2.15
2022-10-23T09:38:37.575Z,2.53
2022-10-23T09:41:17.334Z,2.50
2022-10-23T09:43:44.803Z,2.10
2022-10-23T09:46:13.133Z,2.90
2022-10-23T09:48:42.407Z,1.98
2022-10-23T09:51:21.811Z,2.13
2022-10-23T09:53:53.481Z,2.22
2022-10-23T09:56:26.075Z,1.90
2022-10-23T09:59:06.423Z,1.98
2022-10-23T10:01:48.194Z,1.38
2022-10-23T10:04:41.168Z,1.83
2022-10-23T10:07:31.186Z,1.77
2022-10-23T10:10:01.265Z,2.10
2022-10-23T10:12:46.009Z,2.50
2022-10-23T10:15:19.535Z,1.88
2022-10-23T10:18:04.856Z,1.65
2022-10-23T10:20:47.317Z,1.70
2022-10-23T10:23:42.728Z,2.55
2022-10-23T10:26:37.788Z,1.65
2022-10-23T10:29:30.254Z,2.15
2022-10-23T10:32:22.356Z,2.30
2022-10-23T10:34:57.120Z,2.05
2022-10-23T10:37:30.355Z,2.05
2022-10-23T10:40:15.882Z,2.20
2022-10-23T10:43:01.609Z,2.17
2022-10-23T10:45:49.382Z,2.25
2022-10-23T10:48:47.660Z,1.98
2022-10-23T10:51:51.961Z,2.47
2022-10-23T10:55:02.556Z,1.85
2022-10-23T10:57:38.243Z,1.83
2022-10-23T11:00:18.564Z,2.45
2022-10-23T11:02:59.598Z,1.80
2022-10-23T11:05:44.524Z,1.95
2022-10-23T11:08:21.524Z,1.65
2022-10-23T11:10:53.465Z,1.88
2022-10-23T11:13:36.361Z,1.77
2022-10-23T11:18:43.382Z,2.00
2022-10-23T11:21:35.178Z,1.95
2022-10-23T11:24:19.639Z,2.28
2022-10-23T11:27:11.906Z,2.30
2022-10-23T11:30:03.490Z,2.17
2022-10-23T11:33:09.167Z,2.15
2022-10-23T11:36:07.138Z,2.10
2022-10-23T11:38:41.068Z,1.30
2022-10-23T11:41:25.455Z,2.30
2022-10-23T11:44:05.958Z,2.45
2022-10-23T11:46:38.319Z,2.05
2022-10-23T11:49:19.634Z,2.47
2022-10-23T11:51:47.195Z,2.80
2022-10-23T11:54:18.364Z,2.05
2022-10-23T11:57:02.671Z,2.20
2022-10-23T11:59:32.866Z,2.00
2022-10-23T12:02:03.860Z,2.50
2022-10-23T12:04:47.984Z,2.60
2022-10-23T12:07:26.916Z,2.72
2022-10-23T12:09:59.997Z,2.55
2022-10-23T12:12:40.933Z,2.00
2022-10-23T12:15:11.673Z,2.50
2022-10-23T12:17:40.821Z,2.80
2022-10-23T12:20:08.468Z,2.55
2022-10-23T12:22:45.016Z,3.30
2022-10-23T12:25:34.927Z,4.15
2022-10-23T12:28:31.964Z,2.40
2022-10-23T12:31:17.760Z,2.00
2022-10-23T12:34:00.757Z,2.35
2022-10-23T12:38:58.821Z,1.85
2022-10-23T12:41:28.836Z,2.90
2022-10-23T12:43:59.343Z,2.80
2022-10-23T12:46:42.232Z,2.85
2022-10-23T12:49:19.184Z,3.17
2022-10-23T12:51:57.319Z,2.80
2022-10-23T12:54:26.253Z,2.20
2022-10-23T12:56:54.380Z,2.35
2022-10-23T12:59:32.862Z,2.40
2022-10-23T13:02:01.551Z,2.35
2022-10-23T13:08:21.298Z,3.53
2022-10-23T13:11:15.604Z,3.90
2022-10-23T13:13:43.327Z,6.82
2022-10-23T13:16:19.918Z,4.97
2022-10-23T13:18:48.087Z,5.53
2022-10-23T13:21:27.235Z,4.93
2022-10-23T13:23:55.350Z,4.90
2022-10-23T13:26:45.274Z,4.90
2022-10-23T13:29:23.191Z,3.90
2022-10-23T13:31:51.173Z,4.70
2022-10-23T13:34:24.384Z,4.57
2022-10-23T13:36:57.771Z,4.85
2022-10-23T13:39:28.534Z,3.85
2022-10-23T13:41:56.810Z,3.45
2022-10-23T13:44:24.907Z,3.55
2022-10-23T13:46:53.186Z,3.30
2022-10-23T13:49:20.774Z,4.18
2022-10-23T13:51:52.457Z,4.90
2022-10-23T13:54:25.579Z,4.55
2022-10-23T13:56:54.698Z,3.97
2022-10-23T13:59:22.807Z,4.70
2022-10-23T14:01:51.564Z,4.65
2022-10-23T14:04:20.267Z,3.90
2022-10-23T14:06:48.001Z,3.38
2022-10-23T14:09:20.627Z,3.50
2022-10-23T14:11:48.440Z,3.78
2022-10-23T14:14:18.071Z,3.30
2022-10-23T14:16:46.744Z,3.15
2022-10-23T14:19:15.590Z,3.80
2022-10-23T14:21:43.473Z,3.97
2022-10-23T14:24:11.400Z,4.25
2022-10-23T14:26:39.142Z,4.47
2022-10-23T14:29:10.192Z,5.00
2022-10-23T14:31:41.856Z,3.88
2022-10-23T14:34:09.365Z,3.95
2022-10-23T14:36:49.372Z,3.95
2022-10-23T14:39:18.621Z,4.05
2022-10-23T14:41:46.232Z,4.10
2022-10-23T14:44:13.721Z,3.40
2022-10-23T14:46:41.573Z,3.30
2022-10-23T14:49:09.062Z,3.50
2022-10-23T14:51:36.522Z,3.67
2022-10-23T14:54:06.153Z,3.92
2022-10-23T14:59:07.598Z,4.30
2022-10-23T15:01:43.602Z,3.45
2022-10-23T15:04:14.777Z,3.83
2022-10-23T15:06:43.374Z,5.07
2022-10-23T15:09:11.011Z,3.03
2022-10-23T15:11:38.704Z,3.70
2022-10-23T15:14:08.763Z,4.05
2022-10-23T15:16:41.447Z,4.28
2022-10-23T15:19:15.129Z,3.83
2022-10-23T15:21:47.030Z,4.32
2022-10-23T15:24:15.909Z,3.60
2022-10-23T15:26:44.004Z,3.55
2022-10-23T15:29:11.936Z,3.72
2022-10-23T15:31:43.137Z,3.13
2022-10-23T15:34:17.902Z,3.75
2022-10-23T15:36:47.177Z,3.20
2022-10-23T15:39:18.313Z,3.67
2022-10-23T15:41:46.450Z,3.60
2022-10-23T15:44:17.002Z,3.78
2022-10-23T15:46:45.059Z,4.30
2022-10-23T15:49:13.026Z,5.68
2022-10-23T15:51:41.764Z,7.88
2022-10-23T15:54:13.171Z,6.05
2022-10-23T15:56:40.692Z,5.00
2022-10-23T15:59:08.945Z,5.93
2022-10-23T16:01:36.637Z,4.65
2022-10-23T16:04:04.569Z,6.70
2022-10-23T16:06:32.759Z,4.50
2022-10-23T16:09:00.730Z,2.90
2022-10-23T16:11:31.364Z,2.45
2022-10-23T16:13:59.682Z,0.90
2022-10-23T16:16:28.469Z,1.00
2022-10-23T16:18:58.494Z,0.85
2022-10-23T16:21:28.782Z,1.20
2022-10-23T16:23:57.585Z,1.10
2022-10-23T16:26:26.069Z,1.00
2022-10-23T16:28:55.525Z,1.05
2022-10-23T16:31:24.483Z,0.82
2022-10-23T16:33:52.980Z,0.90
2022-10-23T16:36:21.171Z,0.90
2022-10-23T16:39:24.213Z,0.73
2022-10-23T16:42:10.352Z,0.90
2022-10-23T16:44:57.940Z,0.90
2022-10-23T16:47:31.117Z,0.70
2022-10-23T16:49:58.869Z,0.93
2022-10-23T16:52:27.683Z,2.65
2022-10-23T16:54:55.086Z,3.33
2022-10-23T16:57:22.555Z,3.60
2022-10-23T16:59:50.099Z,3.83
2022-10-23T17:02:17.760Z,3.88
2022-10-23T17:04:45.582Z,2.30
2022-10-23T17:07:13.164Z,2.03
2022-10-23T17:09:41.398Z,1.52
2022-10-23T17:12:09.059Z,1.20
2022-10-23T17:14:38.319Z,1.20
2022-10-23T17:17:06.863Z,1.55
2022-10-23T17:19:49.781Z,3.53
2022-10-23T17:22:17.422Z,2.10
2022-10-23T17:24:47.482Z,2.88
2022-10-23T17:27:18.113Z,2.28
2022-10-23T17:29:45.489Z,2.22
2022-10-23T17:32:12.973Z,2.00
2022-10-23T17:34:40.446Z,2.40
2022-10-23T17:37:08.025Z,2.70
2022-10-23T17:39:35.583Z,4.10
2022-10-23T17:42:03.013Z,13.38
2022-10-23T17:44:30.521Z,19.67
2022-10-23T17:46:58.038Z,16.70
2022-10-23T17:49:25.892Z,10.80
2022-10-23T17:51:55.369Z,8.70
2022-10-23T17:54:24.855Z,4.60
2022-10-23T17:56:52.293Z,3.70
2022-10-23T17:59:19.998Z,2.53
2022-10-23T18:01:49.085Z,3.42
2022-10-23T18:04:19.150Z,2.58
2022-10-23T18:06:50.302Z,3.03
2022-10-23T18:09:18.506Z,2.97
2022-10-23T18:11:48.109Z,3.72
2022-10-23T18:14:18.929Z,3.42
2022-10-23T18:16:46.797Z,3.40
2022-10-23T18:19:17.218Z,4.38
2022-10-23T18:21:45.343Z,4.13
2022-10-23T18:24:13.224Z,4.30
2022-10-23T18:26:41.580Z,2.78
2022-10-23T18:29:10.731Z,3.30
2022-10-23T18:31:39.298Z,3.60
2022-10-23T18:34:11.873Z,3.88
2022-10-23T18:36:40.964Z,3.75
2022-10-23T18:39:11.813Z,4.45
2022-10-23T18:41:42.046Z,3.28
2022-10-23T18:46:37.722Z,3.20
2022-10-23T18:49:05.940Z,2.75
2022-10-23T18:51:35.223Z,2.85
2022-10-23T18:54:08.674Z,2.88
2022-10-23T18:56:38.411Z,3.13
2022-10-23T18:59:08.131Z,3.30
2022-10-23T19:01:36.634Z,2.10
2022-10-23T19:04:04.779Z,2.83
2022-10-23T19:06:33.283Z,2.90
2022-10-23T19:09:00.792Z,2.83
2022-10-23T19:11:29.042Z,3.03
2022-10-23T19:13:56.440Z,3.10
2022-10-23T19:16:49.860Z,3.08
2022-10-23T19:19:24.791Z,2.88
2022-10-23T19:21:53.208Z,2.50
2022-10-23T19:24:30.678Z,2.10
2022-10-23T19:27:00.950Z,2.70
2022-10-23T19:29:29.837Z,2.80
2022-10-23T19:31:57.381Z,2.42
2022-10-23T19:34:25.577Z,2.30
2022-10-23T19:36:54.773Z,2.17
2022-10-23T19:39:23.109Z,2.63
2022-10-23T19:41:51.859Z,2.80
2022-10-23T19:44:20.496Z,1.90
2022-10-23T19:46:48.957Z,2.65
2022-10-23T19:49:17.240Z,1.88
2022-10-23T19:51:50.630Z,2.70
2022-10-23T19:54:20.614Z,2.00
2022-10-23T19:56:48.922Z,1.75
2022-10-23T19:59:19.391Z,2.28
2022-10-23T20:01:48.839Z,2.10
2022-10-23T20:04:18.662Z,5.00
2022-10-23T20:06:47.186Z,2.42
2022-10-23T20:09:14.722Z,1.52
2022-10-23T20:11:43.465Z,2.00
2022-10-23T20:14:11.164Z,2.30
2022-10-23T20:16:39.613Z,2.53
2022-10-23T20:19:10.442Z,1.92
2022-10-23T20:21:40.299Z,1.95
2022-10-23T20:24:08.613Z,2.35
2022-10-23T20:26:38.878Z,1.75
2022-10-23T20:29:07.091Z,2.30
2022-10-23T20:31:39.436Z,2.03
2022-10-23T20:34:07.790Z,2.03
2022-10-23T20:36:39.335Z,1.63
2022-10-23T20:39:13.050Z,2.20
2022-10-23T20:41:41.794Z,2.03
2022-10-23T20:44:12.906Z,1.52
2022-10-23T20:46:40.958Z,2.15
2022-10-23T20:49:08.726Z,2.75
2022-10-23T20:51:36.556Z,2.08
2022-10-23T20:54:04.526Z,2.35
2022-10-23T20:56:37.869Z,1.90
2022-10-23T20:59:09.875Z,1.90
2022-10-23T21:01:40.891Z,2.13
2022-10-23T21:04:10.963Z,2.67
2022-10-23T21:06:51.852Z,1.95
2022-10-23T21:09:28.424Z,1.42
2022-10-23T21:11:56.040Z,1.70
2022-10-23T21:14:23.563Z,1.70
2022-10-23T21:16:51.105Z,1.27
2022-10-23T21:19:18.573Z,2.65
2022-10-23T21:21:46.002Z,1.83
2022-10-23T21:24:16.463Z,1.30
2022-10-23T21:26:45.101Z,1.60
2022-10-23T21:29:20.845Z,1.45
2022-10-23T21:31:56.156Z,1.20
2022-10-23T21:34:24.574Z,2.10
2022-10-23T21:37:12.975Z,2.10
2022-10-23T21:39:42.541Z,1.80
2022-10-23T21:42:14.659Z,2.00
2022-10-23T21:44:42.387Z,2.47
2022-10-23T21:47:10.087Z,1.63
2022-10-23T21:49:37.865Z,3.00
2022-10-23T21:52:05.277Z,1.92
2022-10-23T21:54:33.276Z,3.67
2022-10-23T21:57:03.138Z,1.52
2022-10-23T21:59:33.115Z,1.73
2022-10-23T22:02:03.272Z,1.65
2022-10-23T22:04:30.899Z,1.65
2022-10-23T22:06:58.408Z,1.15
2022-10-23T22:09:25.917Z,1.63
2022-10-23T22:11:54.320Z,1.83
2022-10-23T22:14:23.165Z,1.23
2022-10-23T22:16:50.566Z,1.42
2022-10-23T22:19:19.911Z,1.77
2022-10-23T22:21:49.581Z,1.75
2022-10-23T22:24:20.257Z,1.45
2022-10-23T22:26:53.929Z,1.52
2022-10-23T22:29:24.481Z,1.20
2022-10-23T22:31:52.553Z,1.30
2022-10-23T22:34:28.612Z,1.55
2022-10-23T22:37:11.733Z,1.95
2022-10-23T22:39:42.411Z,1.52
2022-10-23T22:42:09.957Z,1.48
2022-10-23T22:44:37.420Z,1.20
2022-10-23T22:47:05.153Z,2.03
2022-10-23T22:49:32.729Z,2.10
2022-10-23T22:52:00.432Z,1.55
2022-10-23T22:54:27.965Z,2.03
2022-10-23T22:56:55.453Z,1.60
2022-10-23T22:59:23.299Z,2.08
2022-10-23T23:01:51.142Z,2.25
2022-10-23T23:07:11.483Z,1.90
2022-10-23T23:09:41.631Z,1.83
2022-10-23T23:12:10.737Z,2.03
2022-10-23T23:14:38.970Z,1.60
2022-10-23T23:17:07.483Z,1.98
2022-10-23T23:19:35.254Z,1.95
2022-10-23T23:22:03.334Z,1.52
2022-10-23T23:24:31.121Z,2.50
2022-10-23T23:26:58.599Z,1.98
2022-10-23T23:29:28.352Z,2.03
2022-10-23T23:31:55.786Z,2.58
2022-10-23T23:34:23.242Z,1.88
2022-10-23T23:36:50.844Z,2.88
2022-10-23T23:39:18.330Z,2.22
2022-10-23T23:41:45.764Z,2.03
2022-10-23T23:44:13.168Z,1.42
2022-10-23T23:46:40.615Z,2.10
2022-10-23T23:49:08.520Z,2.13
2022-10-23T23:51:37.242Z,2.00
2022-10-23T23:54:04.785Z,2.40
2022-10-23T23:56:32.218Z,1.63
2022-10-23T23:58:59.744Z,1.90
